createdAt,value
2023-02-17T00:01:26.174Z,33.80
2023-02-17T00:03:00.482Z,30.52
2023-02-17T00:04:34.934Z,36.67
2023-02-17T00:06:07.999Z,34.30
2023-02-17T00:07:42.816Z,39.97
2023-02-17T00:09:16.381Z,40.05
2023-02-17T00:10:57.696Z,45.42
2023-02-17T00:12:31.057Z,45.17
2023-02-17T00:14:04.746Z,47.15
2023-02-17T00:15:40.904Z,51.95
2023-02-17T00:17:14.304Z,45.53
2023-02-17T00:18:47.877Z,40.95
2023-02-17T00:20:21.550Z,45.50
2023-02-17T00:21:56.721Z,40.45
2023-02-17T00:23:30.131Z,41.40
2023-02-17T00:25:03.254Z,35.80
2023-02-17T00:26:36.737Z,39.90
2023-02-17T00:28:09.952Z,41.85
2023-02-17T00:29:43.278Z,41.53
2023-02-17T00:31:20.246Z,43.30
2023-02-17T00:32:53.624Z,43.08
2023-02-17T00:34:28.180Z,37.47
2023-02-17T00:36:05.526Z,38.28
2023-02-17T00:37:38.798Z,44.10
2023-02-17T00:39:15.234Z,41.28
2023-02-17T00:40:48.423Z,38.85
2023-02-17T00:42:21.784Z,39.47
2023-02-17T00:43:55.229Z,35.80
2023-02-17T00:45:28.663Z,38.50
2023-02-17T00:47:03.220Z,33.13
2023-02-17T00:48:36.495Z,35.28
2023-02-17T00:50:11.364Z,39.15
2023-02-17T00:51:44.926Z,39.20
2023-02-17T00:53:19.101Z,30.67
2023-02-17T00:54:52.643Z,32.80
2023-02-17T00:56:25.722Z,33.47
2023-02-17T00:57:59.002Z,33.58
2023-02-17T00:59:32.170Z,31.40
2023-02-17T01:01:06.549Z,31.77
2023-02-17T01:02:41.120Z,31.60
2023-02-17T01:04:14.687Z,31.92
2023-02-17T01:05:48.908Z,27.67
2023-02-17T01:07:22.299Z,29.63
2023-02-17T01:08:56.094Z,30.77
2023-02-17T01:10:29.488Z,29.02
2023-02-17T01:12:02.572Z,28.83
2023-02-17T01:13:37.007Z,26.23
2023-02-17T01:15:10.674Z,30.02
2023-02-17T01:16:47.345Z,26.67
2023-02-17T01:18:24.330Z,26.50
2023-02-17T01:19:58.906Z,26.38
2023-02-17T01:21:33.217Z,29.42
2023-02-17T01:23:07.355Z,27.05
2023-02-17T01:24:40.829Z,25.48
2023-02-17T01:26:18.048Z,32.05
2023-02-17T01:27:51.183Z,24.15
2023-02-17T01:29:23.442Z,26.10
2023-02-17T01:30:56.602Z,27.40
2023-02-17T01:32:30.512Z,28.95
2023-02-17T01:34:05.103Z,31.25
2023-02-17T01:35:38.495Z,29.55
2023-02-17T01:37:11.623Z,28.15
2023-02-17T01:38:46.508Z,28.45
2023-02-17T01:40:20.367Z,32.03
2023-02-17T01:41:52.796Z,25.33
2023-02-17T01:43:26.695Z,30.65
2023-02-17T01:45:35.228Z,29.33
2023-02-17T01:47:14.065Z,31.60
2023-02-17T01:48:51.111Z,31.05
2023-02-17T01:50:29.600Z,33.33
2023-02-17T01:52:11.761Z,30.38
2023-02-17T01:53:48.146Z,30.52
2023-02-17T01:55:23.245Z,29.92
2023-02-17T01:57:00.801Z,35.05
2023-02-17T01:58:35.108Z,32.20
2023-02-17T02:00:13.204Z,29.67
2023-02-17T02:01:46.962Z,30.00
2023-02-17T02:03:20.038Z,27.80
2023-02-17T02:04:54.607Z,30.13
2023-02-17T02:06:30.657Z,29.67
2023-02-17T02:08:06.237Z,29.80
2023-02-17T02:09:42.992Z,27.65
2023-02-17T02:11:16.189Z,23.52
2023-02-17T02:12:52.473Z,25.60
2023-02-17T02:14:25.756Z,32.75
2023-02-17T02:16:08.239Z,30.73
2023-02-17T02:17:53.918Z,28.02
2023-02-17T02:19:56.061Z,26.02
2023-02-17T02:22:02.030Z,25.08
2023-02-17T02:23:57.548Z,28.35
2023-02-17T02:25:57.173Z,45.03
2023-02-17T02:27:44.182Z,43.15
2023-02-17T02:29:59.704Z,29.27
2023-02-17T02:31:45.181Z,29.63
2023-02-17T02:33:25.764Z,40.42
2023-02-17T02:35:02.209Z,26.10
2023-02-17T02:36:41.979Z,28.42
2023-02-17T02:38:26.766Z,26.70
2023-02-17T02:40:04.814Z,27.17
2023-02-17T02:41:44.760Z,30.60
2023-02-17T02:43:20.265Z,26.98
2023-02-17T02:44:54.513Z,28.33
2023-02-17T02:46:27.883Z,29.58
2023-02-17T02:48:00.026Z,33.20
2023-02-17T02:49:38.411Z,30.65
2023-02-17T02:51:21.963Z,32.75
2023-02-17T02:53:09.806Z,31.52
2023-02-17T02:54:53.950Z,33.63
2023-02-17T02:56:40.986Z,33.92
2023-02-17T02:58:20.952Z,30.10
2023-02-17T03:00:13.186Z,33.72
2023-02-17T03:01:52.911Z,42.78
2023-02-17T03:03:36.338Z,47.60
2023-02-17T03:05:15.176Z,94.78
2023-02-17T03:06:54.065Z,133.30
2023-02-17T03:08:34.746Z,53.90
2023-02-17T03:10:09.243Z,59.13
2023-02-17T03:11:43.862Z,54.55
2023-02-17T03:13:17.029Z,49.67
2023-02-17T03:14:54.244Z,50.53
2023-02-17T03:16:29.366Z,43.08
2023-02-17T03:18:04.218Z,44.13
2023-02-17T03:19:38.237Z,35.60
2023-02-17T03:21:17.104Z,30.73
2023-02-17T03:22:50.809Z,35.35
2023-02-17T03:24:24.154Z,34.42
2023-02-17T03:25:59.037Z,31.98
2023-02-17T03:27:32.297Z,133.27
2023-02-17T03:29:06.048Z,45.42
2023-02-17T03:30:39.285Z,29.85
2023-02-17T03:32:13.260Z,34.53
2023-02-17T03:33:46.653Z,37.00
2023-02-17T03:35:20.851Z,39.42
2023-02-17T03:36:56.226Z,29.98
2023-02-17T03:38:29.545Z,31.13
2023-02-17T03:40:03.363Z,30.58
2023-02-17T03:41:36.912Z,32.90
2023-02-17T03:43:10.265Z,28.02
2023-02-17T03:44:43.516Z,30.23
2023-02-17T03:46:16.708Z,30.42
2023-02-17T03:47:50.378Z,30.45
2023-02-17T03:49:22.487Z,34.03
2023-02-17T03:50:56.162Z,30.40
2023-02-17T03:52:31.073Z,28.35
2023-02-17T03:54:04.528Z,29.65
2023-02-17T03:55:36.625Z,30.58
2023-02-17T03:57:09.950Z,31.00
2023-02-17T03:58:42.550Z,32.42
2023-02-17T04:00:17.236Z,34.22
2023-02-17T04:01:49.402Z,32.13
2023-02-17T04:03:22.702Z,26.35
2023-02-17T04:04:55.992Z,30.67
2023-02-17T04:06:29.721Z,29.95
2023-02-17T04:08:07.492Z,35.33
2023-02-17T04:09:40.935Z,30.20
2023-02-17T04:11:14.114Z,63.78
2023-02-17T04:12:47.475Z,53.28
2023-02-17T04:14:20.628Z,38.08
2023-02-17T04:15:54.666Z,58.25
2023-02-17T04:17:28.023Z,45.05
2023-02-17T04:19:01.965Z,59.33
2023-02-17T04:20:35.229Z,62.88
2023-02-17T04:22:09.108Z,57.05
2023-02-17T04:23:43.679Z,54.80
2023-02-17T04:25:17.043Z,52.13
2023-02-17T04:26:50.199Z,54.25
2023-02-17T04:28:23.446Z,42.42
2023-02-17T04:29:56.771Z,42.03
2023-02-17T04:31:30.291Z,31.40
2023-02-17T04:33:04.134Z,36.22
2023-02-17T04:34:37.894Z,27.80
2023-02-17T04:36:11.550Z,167.52
2023-02-17T04:37:45.826Z,40.55
2023-02-17T04:39:20.529Z,32.28
2023-02-17T04:40:54.557Z,34.95
2023-02-17T04:42:27.800Z,38.58
2023-02-17T04:44:01.089Z,36.58
2023-02-17T04:45:35.067Z,42.80
2023-02-17T04:47:09.146Z,40.85
2023-02-17T04:48:42.335Z,44.20
2023-02-17T04:50:16.186Z,31.15
2023-02-17T04:51:49.600Z,27.83
2023-02-17T04:53:22.835Z,27.35
2023-02-17T04:54:57.335Z,32.70
2023-02-17T04:56:30.694Z,30.42
2023-02-17T04:58:02.879Z,26.90
2023-02-17T04:59:36.210Z,26.00
2023-02-17T05:01:09.424Z,28.75
2023-02-17T05:02:42.840Z,33.53
2023-02-17T05:04:16.036Z,46.85
2023-02-17T05:05:50.520Z,28.10
2023-02-17T05:07:24.021Z,27.77
2023-02-17T05:08:57.315Z,29.75
2023-02-17T05:10:32.169Z,28.17
2023-02-17T05:12:06.399Z,28.50
2023-02-17T05:13:39.556Z,26.70
2023-02-17T05:15:13.880Z,29.75
2023-02-17T05:16:46.354Z,32.78
2023-02-17T05:18:19.799Z,34.30
2023-02-17T05:19:52.945Z,33.67
2023-02-17T05:21:26.330Z,50.15
2023-02-17T05:22:59.457Z,43.33
2023-02-17T05:24:33.045Z,42.53
2023-02-17T05:26:08.053Z,41.05
2023-02-17T05:27:41.598Z,79.95
2023-02-17T05:29:14.745Z,77.45
2023-02-17T05:30:49.757Z,75.05
2023-02-17T05:32:24.170Z,68.60
2023-02-17T05:33:57.698Z,71.68
2023-02-17T05:35:30.906Z,65.78
2023-02-17T05:37:03.315Z,50.47
2023-02-17T05:38:37.265Z,43.80
2023-02-17T05:40:11.398Z,43.47
2023-02-17T05:41:45.956Z,52.80
2023-02-17T05:43:19.358Z,43.78
2023-02-17T05:44:52.599Z,68.55
2023-02-17T05:46:25.869Z,69.55
2023-02-17T05:47:59.083Z,55.10
2023-02-17T05:49:32.456Z,90.68
2023-02-17T05:51:06.520Z,39.53
2023-02-17T05:52:39.969Z,40.63
2023-02-17T05:54:12.744Z,40.30
2023-02-17T05:55:48.526Z,47.10
2023-02-17T05:57:23.339Z,50.08
2023-02-17T05:58:56.654Z,59.03
2023-02-17T06:00:30.174Z,59.17
2023-02-17T06:02:03.588Z,56.60
2023-02-17T06:03:37.399Z,56.00
2023-02-17T06:05:11.305Z,64.22
2023-02-17T06:06:44.582Z,52.40
2023-02-17T06:08:18.084Z,49.40
2023-02-17T06:09:51.263Z,61.83
2023-02-17T06:11:24.469Z,45.42
2023-02-17T06:12:59.020Z,44.67
2023-02-17T06:14:31.328Z,45.75
2023-02-17T06:16:05.263Z,44.17
2023-02-17T06:17:39.271Z,39.88
2023-02-17T06:19:12.676Z,41.88
2023-02-17T06:20:46.361Z,39.50
2023-02-17T06:22:19.737Z,39.92
2023-02-17T06:23:52.927Z,33.17
2023-02-17T06:25:26.070Z,31.70
2023-02-17T06:26:59.329Z,27.83
2023-02-17T06:28:35.149Z,31.10
2023-02-17T06:30:10.072Z,27.63
2023-02-17T06:31:43.430Z,31.52
2023-02-17T06:33:16.917Z,25.27
2023-02-17T06:34:50.209Z,31.42
2023-02-17T06:36:23.399Z,25.48
2023-02-17T06:37:56.805Z,24.30
2023-02-17T06:39:30.154Z,32.35
2023-02-17T06:41:03.388Z,28.27
2023-02-17T06:42:36.785Z,21.90
2023-02-17T06:44:11.416Z,31.98
2023-02-17T06:45:44.778Z,37.53
2023-02-17T06:47:17.979Z,26.33
2023-02-17T06:48:51.371Z,32.97
2023-02-17T06:50:24.664Z,31.35
2023-02-17T06:51:57.950Z,36.60
2023-02-17T06:53:31.221Z,39.55
2023-02-17T06:55:04.608Z,34.22
2023-02-17T06:56:37.985Z,38.63
2023-02-17T06:58:11.120Z,44.40
2023-02-17T06:59:46.112Z,47.22
2023-02-17T07:01:21.545Z,47.05
2023-02-17T07:02:54.985Z,48.95
2023-02-17T07:04:28.258Z,45.03
2023-02-17T07:06:01.526Z,46.33
2023-02-17T07:07:35.171Z,40.05
2023-02-17T07:09:08.661Z,30.23
2023-02-17T07:10:42.001Z,22.50
2023-02-17T07:12:15.135Z,26.95
2023-02-17T07:13:49.197Z,26.20
2023-02-17T07:15:23.967Z,30.02
2023-02-17T07:16:57.182Z,24.02
2023-02-17T07:18:30.323Z,22.25
2023-02-17T07:20:03.774Z,28.60
2023-02-17T07:21:37.076Z,27.33
2023-02-17T07:23:10.257Z,32.40
2023-02-17T07:24:43.433Z,25.83
2023-02-17T07:26:16.760Z,26.52
2023-02-17T07:27:50.367Z,27.25
2023-02-17T07:29:23.794Z,32.30
2023-02-17T07:30:58.315Z,38.35
2023-02-17T07:32:31.759Z,39.63
2023-02-17T07:34:06.093Z,37.03
2023-02-17T07:35:44.947Z,31.48
2023-02-17T07:37:20.093Z,36.47
2023-02-17T07:38:53.320Z,36.28
2023-02-17T07:40:27.606Z,33.42
2023-02-17T07:42:01.160Z,30.40
2023-02-17T07:43:34.613Z,34.63
2023-02-17T07:45:10.064Z,35.20
2023-02-17T07:46:44.882Z,31.70
2023-02-17T07:48:18.014Z,33.05
2023-02-17T07:49:51.345Z,34.10
2023-02-17T07:51:24.838Z,34.28
2023-02-17T07:52:58.111Z,33.05
2023-02-17T07:54:31.244Z,36.03
2023-02-17T07:56:05.629Z,36.15
2023-02-17T07:57:39.376Z,39.17
2023-02-17T07:59:14.090Z,41.03
2023-02-17T08:00:47.231Z,39.30
2023-02-17T08:02:21.964Z,34.88
2023-02-17T08:03:55.713Z,39.33
2023-02-17T08:05:30.364Z,40.13
2023-02-17T08:07:03.435Z,33.70
2023-02-17T08:08:54.064Z,38.03
2023-02-17T08:10:45.073Z,52.83
2023-02-17T08:12:37.811Z,44.85
2023-02-17T08:14:13.052Z,33.83
2023-02-17T08:15:47.214Z,27.73
2023-02-17T08:17:21.818Z,33.08
2023-02-17T08:18:55.567Z,37.10
2023-02-17T08:20:28.932Z,24.98
2023-02-17T08:22:02.378Z,29.17
2023-02-17T08:23:35.606Z,24.75
2023-02-17T08:25:09.136Z,26.15
2023-02-17T08:26:42.335Z,24.50
2023-02-17T08:28:15.707Z,22.95
2023-02-17T08:29:49.146Z,23.83
2023-02-17T08:31:25.119Z,29.15
2023-02-17T08:32:59.733Z,22.58
2023-02-17T08:34:34.192Z,23.63
2023-02-17T08:36:08.503Z,18.77
2023-02-17T08:37:41.952Z,24.27
2023-02-17T08:39:17.503Z,26.80
2023-02-17T08:40:50.796Z,19.75
2023-02-17T08:42:24.259Z,23.25
2023-02-17T08:43:57.832Z,20.60
2023-02-17T08:45:31.695Z,18.30
2023-02-17T08:47:08.963Z,20.30
2023-02-17T08:48:44.470Z,22.48
2023-02-17T08:50:17.738Z,23.70
2023-02-17T08:51:51.372Z,22.33
2023-02-17T08:53:25.163Z,22.67
2023-02-17T08:54:58.359Z,22.45
2023-02-17T08:56:31.673Z,22.25
2023-02-17T08:58:04.838Z,22.27
2023-02-17T08:59:38.235Z,24.38
2023-02-17T09:01:12.371Z,18.10
2023-02-17T09:02:46.099Z,17.80
2023-02-17T09:04:20.710Z,23.13
2023-02-17T09:05:55.744Z,22.33
2023-02-17T09:07:29.539Z,21.08
2023-02-17T09:09:02.724Z,20.27
2023-02-17T09:10:36.162Z,20.38
2023-02-17T09:12:09.977Z,22.80
2023-02-17T09:13:43.251Z,25.17
2023-02-17T09:15:16.372Z,22.30
2023-02-17T09:16:49.503Z,24.08
2023-02-17T09:18:23.280Z,22.63
2023-02-17T09:19:58.007Z,15.18
2023-02-17T09:21:31.678Z,20.17
2023-02-17T09:23:04.970Z,16.58
2023-02-17T09:24:40.425Z,21.95
2023-02-17T09:26:15.275Z,22.08
2023-02-17T09:27:48.520Z,22.02
2023-02-17T09:29:21.869Z,18.33
2023-02-17T09:30:55.459Z,20.38
2023-02-17T09:32:28.850Z,18.67
2023-02-17T09:34:02.162Z,23.35
2023-02-17T09:35:38.764Z,21.25
2023-02-17T09:37:13.412Z,20.25
2023-02-17T09:38:47.436Z,18.40
2023-02-17T09:40:23.258Z,20.95
2023-02-17T09:41:57.853Z,22.20
2023-02-17T09:43:33.675Z,27.42
2023-02-17T09:45:12.940Z,23.30
2023-02-17T09:47:01.289Z,23.30
2023-02-17T09:48:37.412Z,29.88
2023-02-17T09:50:15.401Z,20.23
2023-02-17T09:51:56.171Z,15.13
2023-02-17T09:53:36.439Z,8.57
2023-02-17T09:55:14.759Z,15.27
2023-02-17T09:56:52.385Z,10.38
2023-02-17T09:58:28.874Z,10.32
2023-02-17T10:00:09.082Z,13.15
2023-02-17T10:01:47.400Z,14.40
2023-02-17T10:03:25.213Z,10.43
2023-02-17T10:05:01.927Z,13.32
2023-02-17T10:06:38.537Z,10.18
2023-02-17T10:08:18.596Z,8.30
2023-02-17T10:09:55.057Z,9.38
2023-02-17T10:11:32.771Z,10.02
2023-02-17T10:13:07.609Z,11.25
2023-02-17T10:14:46.211Z,11.20
2023-02-17T10:16:24.505Z,10.73
2023-02-17T10:18:05.804Z,8.23
2023-02-17T10:19:49.107Z,16.75
2023-02-17T10:21:28.671Z,8.68
2023-02-17T10:23:08.437Z,10.73
2023-02-17T10:24:42.969Z,10.15
2023-02-17T10:26:27.475Z,10.07
2023-02-17T10:28:09.037Z,7.28
2023-02-17T10:29:52.347Z,9.30
2023-02-17T10:31:37.023Z,6.45
2023-02-17T10:33:15.492Z,6.95
2023-02-17T10:35:05.276Z,8.73
2023-02-17T10:36:52.415Z,5.97
2023-02-17T10:38:40.780Z,8.18
2023-02-17T10:40:19.529Z,13.70
2023-02-17T10:41:56.554Z,10.50
2023-02-17T10:43:32.872Z,8.48
2023-02-17T10:45:09.399Z,7.97
2023-02-17T10:46:45.008Z,9.00
2023-02-17T10:48:23.373Z,9.85
2023-02-17T10:49:58.439Z,10.60
2023-02-17T10:51:33.159Z,10.10
2023-02-17T10:53:15.270Z,9.77
2023-02-17T10:54:53.912Z,7.47
2023-02-17T10:56:35.619Z,7.97
2023-02-17T10:58:16.035Z,11.32
2023-02-17T10:59:50.584Z,10.65
2023-02-17T11:01:24.472Z,8.57
2023-02-17T11:02:57.654Z,8.10
2023-02-17T11:04:42.800Z,8.98
2023-02-17T11:06:22.353Z,7.60
2023-02-17T11:08:02.127Z,8.40
2023-02-17T11:09:36.425Z,10.02
2023-02-17T11:11:18.262Z,10.18
2023-02-17T11:12:55.912Z,8.60
2023-02-17T11:14:31.641Z,8.75
2023-02-17T11:16:06.176Z,7.90
2023-02-17T11:17:41.029Z,9.85
2023-02-17T11:19:24.560Z,6.47
2023-02-17T11:21:08.289Z,12.45
2023-02-17T11:22:45.840Z,6.18
2023-02-17T11:24:19.346Z,7.38
2023-02-17T11:26:04.652Z,9.55
2023-02-17T11:27:38.938Z,9.38
2023-02-17T11:29:22.326Z,7.45
2023-02-17T11:30:57.545Z,5.78
2023-02-17T11:32:32.839Z,10.27
2023-02-17T11:34:16.792Z,7.18
2023-02-17T11:35:55.032Z,6.78
2023-02-17T11:37:32.365Z,7.22
2023-02-17T11:39:18.786Z,9.73
2023-02-17T11:40:58.113Z,9.95
2023-02-17T11:42:33.291Z,14.20
2023-02-17T11:44:10.139Z,6.85
2023-02-17T11:45:55.663Z,13.43
2023-02-17T11:47:40.651Z,18.30
2023-02-17T11:49:47.138Z,23.05
2023-02-17T11:51:24.648Z,19.13
2023-02-17T11:53:09.903Z,104.75
2023-02-17T11:54:52.408Z,15.88
2023-02-17T11:56:31.155Z,12.00
2023-02-17T11:58:18.918Z,8.57
2023-02-17T12:00:05.806Z,13.38
2023-02-17T12:02:18.287Z,6.82
2023-02-17T12:04:35.593Z,7.78
2023-02-17T12:06:15.729Z,8.55
2023-02-17T12:08:04.134Z,7.38
2023-02-17T12:09:49.281Z,8.02
2023-02-17T12:11:32.294Z,9.07
2023-02-17T12:13:20.800Z,6.47
2023-02-17T12:15:04.253Z,8.85
2023-02-17T12:16:47.380Z,8.48
2023-02-17T12:18:38.221Z,6.75
2023-02-17T12:20:29.817Z,5.82
2023-02-17T12:22:14.886Z,7.72
2023-02-17T12:24:06.932Z,18.02
2023-02-17T12:25:46.458Z,31.17
2023-02-17T12:27:33.075Z,12.38
2023-02-17T12:29:19.325Z,33.55
2023-02-17T12:31:02.584Z,17.48
2023-02-17T12:32:49.668Z,9.13
2023-02-17T12:34:31.322Z,13.30
2023-02-17T12:36:09.356Z,11.70
2023-02-17T12:37:49.170Z,5.93
2023-02-17T12:39:26.229Z,7.53
2023-02-17T12:41:08.118Z,6.18
2023-02-17T12:42:47.351Z,13.68
2023-02-17T12:44:24.709Z,14.60
2023-02-17T12:46:01.456Z,4.70
2023-02-17T12:47:45.354Z,8.40
2023-02-17T12:49:24.727Z,7.55
2023-02-17T12:51:06.813Z,14.02
2023-02-17T12:52:42.222Z,6.75
2023-02-17T12:54:22.087Z,10.77
2023-02-17T12:55:58.633Z,5.18
2023-02-17T12:57:42.823Z,4.22
2023-02-17T12:59:19.390Z,6.00
2023-02-17T13:00:59.872Z,6.22
2023-02-17T13:02:33.343Z,8.63
2023-02-17T13:04:06.610Z,4.90
2023-02-17T13:05:45.861Z,6.57
2023-02-17T13:07:41.847Z,3.42
2023-02-17T13:09:25.482Z,6.97
2023-02-17T13:11:03.858Z,12.27
2023-02-17T13:12:41.652Z,11.57
2023-02-17T13:14:27.210Z,2.33
2023-02-17T13:16:06.223Z,7.32
2023-02-17T13:17:42.123Z,9.30
2023-02-17T13:19:16.319Z,14.68
2023-02-17T13:21:01.589Z,12.65
2023-02-17T13:22:36.664Z,7.60
2023-02-17T13:24:16.649Z,8.75
2023-02-17T13:26:19.750Z,11.85
2023-02-17T13:27:53.267Z,4.30
2023-02-17T13:29:37.035Z,9.60
2023-02-17T13:31:14.271Z,9.90
2023-02-17T13:32:47.472Z,10.80
2023-02-17T13:34:32.878Z,11.68
2023-02-17T13:36:14.394Z,13.13
2023-02-17T13:37:49.241Z,9.13
2023-02-17T13:39:37.753Z,8.95
2023-02-17T13:41:15.267Z,9.02
2023-02-17T13:42:49.527Z,8.50
2023-02-17T13:44:29.795Z,6.93
2023-02-17T13:46:05.813Z,7.75
2023-02-17T13:47:41.214Z,7.50
2023-02-17T13:49:22.649Z,7.38
2023-02-17T13:50:58.090Z,10.45
2023-02-17T13:52:33.367Z,6.25
2023-02-17T13:54:10.132Z,12.70
2023-02-17T13:55:43.273Z,9.65
2023-02-17T13:57:25.451Z,9.77
2023-02-17T13:59:08.945Z,12.93
2023-02-17T14:00:44.617Z,15.60
2023-02-17T14:02:35.165Z,9.57
2023-02-17T14:04:21.164Z,15.05
2023-02-17T14:05:56.292Z,11.77
2023-02-17T14:07:29.494Z,16.00
2023-02-17T14:09:19.866Z,11.38
2023-02-17T14:10:53.594Z,8.52
2023-02-17T14:12:31.514Z,8.75
2023-02-17T14:14:07.799Z,16.55
2023-02-17T14:15:52.087Z,15.65
2023-02-17T14:17:33.374Z,31.48
2023-02-17T14:19:09.167Z,35.03
2023-02-17T14:20:42.466Z,31.20
2023-02-17T14:22:28.871Z,53.30
2023-02-17T14:24:02.403Z,40.55
2023-02-17T14:25:39.565Z,16.25
2023-02-17T14:27:14.301Z,14.25
2023-02-17T14:28:55.029Z,18.48
2023-02-17T14:30:34.229Z,13.23
2023-02-17T14:32:07.989Z,14.63
2023-02-17T14:33:41.394Z,11.15
2023-02-17T14:35:23.432Z,14.38
2023-02-17T14:37:08.407Z,14.77
2023-02-17T14:38:43.469Z,12.00
2023-02-17T14:40:20.432Z,17.83
2023-02-17T14:41:54.921Z,12.23
2023-02-17T14:43:28.757Z,12.45
2023-02-17T14:45:02.087Z,16.92
2023-02-17T14:46:36.065Z,13.57
2023-02-17T14:48:09.496Z,10.50
2023-02-17T14:49:42.812Z,14.45
2023-02-17T14:51:17.806Z,13.57
2023-02-17T14:52:52.416Z,16.38
2023-02-17T14:54:27.433Z,13.27
2023-02-17T14:56:06.045Z,15.25
2023-02-17T14:57:40.817Z,15.60
2023-02-17T14:59:13.964Z,15.40
2023-02-17T15:00:47.533Z,9.25
2023-02-17T15:02:22.402Z,16.08
2023-02-17T15:03:55.831Z,15.52
2023-02-17T15:05:29.828Z,13.35
2023-02-17T15:07:03.360Z,14.82
2023-02-17T15:08:37.377Z,15.95
2023-02-17T15:10:26.100Z,13.95
2023-02-17T15:11:59.693Z,17.45
2023-02-17T15:13:34.436Z,15.30
2023-02-17T15:15:08.245Z,12.82
2023-02-17T15:16:41.826Z,15.25
2023-02-17T15:18:16.847Z,22.20
2023-02-17T15:19:50.185Z,15.75
2023-02-17T15:21:27.906Z,14.02
2023-02-17T15:23:01.643Z,20.08
2023-02-17T15:24:36.645Z,23.67
2023-02-17T15:26:10.935Z,17.63
2023-02-17T15:27:47.441Z,21.02
2023-02-17T15:29:25.074Z,17.70
2023-02-17T15:30:58.570Z,16.77
2023-02-17T15:32:31.984Z,17.30
2023-02-17T15:34:13.212Z,17.20
2023-02-17T15:35:54.710Z,20.42
2023-02-17T15:37:28.257Z,18.45
2023-02-17T15:39:01.766Z,15.70
2023-02-17T15:40:35.446Z,16.98
2023-02-17T15:42:14.279Z,15.50
2023-02-17T15:43:49.731Z,21.38
2023-02-17T15:45:26.968Z,22.35
2023-02-17T15:47:00.344Z,30.70
2023-02-17T15:48:34.707Z,29.13
2023-02-17T15:50:18.178Z,31.85
2023-02-17T15:51:53.681Z,30.33
2023-02-17T15:53:26.910Z,32.67
2023-02-17T15:55:00.568Z,47.70
2023-02-17T15:56:45.482Z,46.90
2023-02-17T15:58:22.595Z,41.08
2023-02-17T15:59:57.624Z,52.60
2023-02-17T16:01:34.177Z,56.83
2023-02-17T16:03:07.394Z,70.18
2023-02-17T16:04:40.634Z,59.55
2023-02-17T16:06:14.519Z,59.80
2023-02-17T16:07:48.206Z,65.88
2023-02-17T16:09:21.899Z,71.85
2023-02-17T16:10:55.958Z,63.67
2023-02-17T16:12:29.382Z,66.05
2023-02-17T16:14:03.078Z,61.67
2023-02-17T16:15:37.592Z,77.90
2023-02-17T16:17:16.790Z,54.42
2023-02-17T16:18:50.568Z,57.60
2023-02-17T16:20:25.036Z,57.22
2023-02-17T16:21:58.562Z,69.13
2023-02-17T16:23:31.834Z,67.43
2023-02-17T16:25:05.477Z,73.47
2023-02-17T16:26:40.060Z,94.88
2023-02-17T16:28:16.653Z,74.93
2023-02-17T16:29:50.456Z,76.10
2023-02-17T16:31:24.230Z,108.40
2023-02-17T16:33:00.254Z,115.20
2023-02-17T16:34:35.094Z,100.25
2023-02-17T16:36:15.887Z,91.30
2023-02-17T16:37:54.345Z,79.32
2023-02-17T16:39:28.057Z,108.35
2023-02-17T16:41:01.222Z,115.03
2023-02-17T16:42:34.554Z,234.43
2023-02-17T16:44:07.909Z,147.48
2023-02-17T16:45:50.010Z,294.63
2023-02-17T16:47:24.152Z,240.55
2023-02-17T16:48:59.857Z,259.55
2023-02-17T16:50:35.367Z,237.43
2023-02-17T16:52:21.715Z,217.45
2023-02-17T16:53:55.294Z,202.00
2023-02-17T16:55:30.731Z,204.63
2023-02-17T16:57:04.041Z,229.30
2023-02-17T16:58:37.686Z,278.65
2023-02-17T17:00:13.502Z,217.07
2023-02-17T17:01:47.714Z,224.20
2023-02-17T17:03:22.404Z,183.75
2023-02-17T17:04:57.590Z,452.10
2023-02-17T17:06:52.195Z,208.18
2023-02-17T17:08:25.385Z,173.63
2023-02-17T17:10:15.353Z,177.95
2023-02-17T17:11:50.147Z,152.90
2023-02-17T17:13:23.826Z,103.78
2023-02-17T17:14:57.310Z,95.28
2023-02-17T17:16:34.973Z,60.17
2023-02-17T17:18:10.164Z,96.22
2023-02-17T17:19:44.078Z,90.28
2023-02-17T17:21:20.613Z,64.57
2023-02-17T17:22:54.016Z,49.85
2023-02-17T17:24:27.236Z,55.65
2023-02-17T17:26:00.708Z,53.75
2023-02-17T17:27:34.135Z,41.15
2023-02-17T17:29:08.863Z,44.28
2023-02-17T23:56:53.755Z,33.55
2023-02-17T23:58:26.074Z,37.33
2023-02-17T23:59:59.346Z,41.15
